Log in
NYSE:TMST

Timkensteel Institutional Ownership

$3.82
+0.07 (+1.87 %)
(As of 09/18/2020 12:00 AM ET)
Add
Compare
Today's Range
$3.65
Now: $3.82
$4.03
50-Day Range
$3.49
MA: $3.90
$4.67
52-Week Range
$2.16
Now: $3.82
$8.00
Volume1.02 million shs
Average Volume339,938 shs
Market Capitalization$172.04 million
P/E RatioN/A
Dividend YieldN/A
Beta2.07

Institutional Ownership

Institutional Ownership Changes (13F Filings) for Timkensteel (NYSE:TMST)

Institutional Ownership Percentage: 62.40%

Institutional Buying and Selling by Quarter


Timkensteel (NYSE TMST) Institutional Buying and Selling

Reporting DateHedge FundShares HeldMarket Value% of PortfolioQuarterly Change in SharesOwnership in Company
9/15/2020Two Sigma Advisers LP55,500$0.22M0.0%+9.0%0.123%
9/4/2020Principal Financial Group Inc.298,904$1.16M0.0%-1.2%0.664%
8/25/2020Nuveen Asset Management LLC207,746$0.81M0.0%+25.0%0.461%
8/20/2020Charles Schwab Investment Management Inc.817,345$3.18M0.0%+88.6%1.815%
8/17/2020AQR Capital Management LLC404,002$1.57M0.0%N/A0.897%
8/17/2020Engineers Gate Manager LP83,310$0.32M0.0%+152.9%0.185%
8/17/2020Jacobs Levy Equity Management Inc.487,267$1.90M0.0%+23.2%1.082%
8/17/2020Public Employees Retirement System of Ohio57,520$0.22M0.0%+33.6%0.128%
8/14/2020Captrust Financial Advisors11,159$42K0.0%N/A0.025%
8/14/2020PDT Partners LLC33,631$0.13M0.0%-13.6%0.075%
8/14/2020Bank of America Corp DE35,946$0.14M0.0%-18.1%0.080%
8/14/2020Stifel Financial Corp23,841$93K0.0%-16.8%0.053%
8/13/2020Gabelli Funds LLC284,900$1.11M0.0%-27.6%0.633%
8/13/2020Gamco Investors INC. ET AL712,900$2.77M0.0%-47.7%1.583%
8/13/2020State of Tennessee Treasury Department38,742$0.15M0.0%+192.2%0.086%
8/12/2020Bank of Montreal Can7,739$28K0.0%+3,889.2%0.017%
8/12/2020American International Group Inc.31,331$0.12M0.0%+13.3%0.070%
8/12/2020Algert Global LLC11,290$44K0.0%N/A0.025%
8/12/2020Goldman Sachs Group Inc.193,425$0.75M0.0%-29.6%0.429%
8/5/2020Principal Financial Group Inc.298,904$1.16M0.0%-1.2%0.665%
8/5/2020Russell Investments Group Ltd.94,489$0.37M0.0%+9.8%0.210%
7/31/2020Comerica Bank41,995$0.15M0.0%+8.5%0.093%
7/31/2020UBS Group AG30,946$0.12M0.0%-8.7%0.069%
7/24/2020Heritage Investors Management Corp18,234$71K0.0%+55.2%0.041%
7/23/2020Stone Ridge Asset Management LLC12,963$50K0.0%N/A0.029%
7/21/2020Assenagon Asset Management S.A.145,100$0.56M0.0%N/A0.323%
7/20/2020SG Americas Securities LLC33,715$0.13M0.0%+38.2%0.075%
7/17/2020Raymond James Financial Services Advisors Inc.36,287$0.14M0.0%+22.6%0.081%
6/19/2020State Street Corp1,324,359$4.28M0.0%+6.0%2.945%
6/16/2020Royal Bank of Canada17,720$57K0.0%+625.9%0.039%
6/2/2020Guggenheim Capital LLC15,481$50K0.0%-49.2%0.034%
5/27/2020Public Employees Retirement Association of Colorado23,600$76K0.0%+190.6%0.052%
5/26/2020Morgan Stanley985,922$3.18M0.0%-37.4%2.193%
5/18/2020Advisor Group Holdings Inc.20,842$68K0.0%N/A0.046%
5/15/2020Engineers Gate Manager LP32,943$0.11M0.0%N/A0.073%
5/15/2020Invesco Ltd.518,698$1.68M0.0%+6.3%1.154%
5/15/2020Morgan Stanley985,922$3.18M0.0%-37.4%2.193%
5/15/2020Two Sigma Advisers LP50,900$0.16M0.0%+59.6%0.113%
5/14/2020Gabelli Funds LLC393,600$1.27M0.0%-14.5%0.875%
5/14/2020Gamco Investors INC. ET AL1,364,300$4.41M0.1%-7.3%3.034%
5/14/2020Teton Advisors Inc.40,000$0.13M0.0%-33.3%0.089%
5/14/2020Commonwealth of Pennsylvania Public School Empls Retrmt SYS20,070$65K0.0%+48.4%0.045%
5/14/2020Deutsche Bank AG52,032$0.17M0.0%-43.9%0.116%
5/14/2020Alliancebernstein L.P.44,805$0.15M0.0%+15.8%0.100%
5/14/2020Nuveen Asset Management LLC166,220$0.54M0.0%+4.7%0.370%
5/13/2020Parametric Portfolio Associates LLC193,990$0.63M0.0%-38.4%0.431%
5/13/2020Horizon Kinetics Asset Management LLC47,572$0.15M0.0%+25.1%0.106%
5/13/2020Healthcare of Ontario Pension Plan Trust Fund1,322,588$4.27M0.0%-5.5%2.941%
5/12/2020Van ECK Associates Corp32,268$0.10M0.0%+16.4%0.072%
5/12/2020Citigroup Inc.13,333$43K0.0%-41.3%0.030%
5/12/2020Principal Financial Group Inc.302,635$0.98M0.0%-4.0%0.673%
5/12/2020JPMorgan Chase & Co.307,443$0.99M0.0%+119.5%0.684%
5/12/2020Virginia Retirement Systems ET AL27,100$88K0.0%-46.7%0.060%
5/11/2020Hunter Associates Investment Management LLC40,285$0.13M0.1%+11.0%0.090%
5/11/2020Mid Atlantic Financial Management Inc. ADV10,519$34K0.0%N/A0.023%
5/11/2020Magnus Financial Group LLC12,961$42K0.0%-24.8%0.029%
5/11/2020State Street Corp1,324,359$4.28M0.0%+6.0%2.945%
5/8/2020Cambridge Investment Research Advisors Inc.24,686$80K0.0%+47.6%0.055%
5/6/2020Russell Investments Group Ltd.86,040$0.28M0.0%+36.8%0.191%
5/6/2020Bank of New York Mellon Corp434,752$1.41M0.0%-1.7%0.967%
5/6/2020Rhumbline Advisers154,982$0.50M0.0%+2.9%0.345%
5/6/2020THB Asset Management514,552$1.66M0.5%+25.3%1.145%
5/6/2020Heritage Investors Management Corp11,746$38K0.0%N/A0.026%
5/4/2020Stratos Wealth Partners LTD.19,025$61K0.0%+46.1%0.042%
5/2/2020SG Americas Securities LLC24,400$79K0.0%N/A0.054%
5/1/2020BlackRock Inc.6,448,675$20.83M0.0%-2.6%14.350%
5/1/2020Public Employees Retirement Association of Colorado23,600$76K0.0%+190.6%0.053%
5/1/2020UBS Group AG33,913$0.11M0.0%-35.1%0.075%
4/29/2020Investment Partners LTD.10,746$35K0.0%N/A0.024%
4/27/2020Texas Permanent School Fund33,934$0.11M0.0%+24.4%0.076%
4/17/2020Nisa Investment Advisors LLC8,570$28K0.0%+1,403.5%0.019%
4/6/2020State of Alaska Department of Revenue35,413$0.11M0.0%+17.6%0.079%
3/5/2020Nuveen Asset Management LLC158,819$1.25M0.0%-5.7%0.354%
2/18/2020Alliancebernstein L.P.38,705$0.30M0.0%-13.6%0.086%
2/17/2020Ladenburg Thalmann Financial Services Inc.20,796$0.16M0.0%-10.8%0.046%
2/14/2020Gabelli Funds LLC460,200$3.62M0.0%-20.3%1.027%
2/14/2020Bank of America Corp DE72,555$0.57M0.0%-18.9%0.162%
2/14/2020UBS Asset Management Americas Inc.36,651$0.29M0.0%-6.1%0.082%
2/14/2020Jacobs Levy Equity Management Inc.231,784$1.82M0.0%+71.4%0.517%
2/14/2020Bank of New York Mellon Corp442,414$3.48M0.0%-1.5%0.987%
2/14/2020Goldman Sachs Group Inc.1,652,706$12.99M0.0%+2,717.5%3.687%
2/14/2020Guggenheim Capital LLC30,475$0.24M0.0%-22.0%0.068%
2/14/2020UBS Group AG52,265$0.41M0.0%+623.3%0.117%
2/14/2020Public Sector Pension Investment Board89,147$0.70M0.0%-11.4%0.199%
2/13/2020Van ECK Associates Corp27,723$0.22M0.0%-12.9%0.062%
2/13/2020Sequoia Financial Advisors LLC37,291$0.29M0.0%-5.2%0.083%
2/12/2020Trexquant Investment LP10,730$84K0.0%N/A0.024%
2/12/2020Credit Suisse AG31,071$0.24M0.0%+25.0%0.069%
2/12/2020Alambic Investment Management L.P.16,388$0.13M0.1%-66.0%0.037%
2/12/2020Citigroup Inc.22,725$0.18M0.0%-13.0%0.051%
2/11/2020THB Asset Management410,598$3.23M0.6%+7.4%0.916%
2/11/2020Great West Life Assurance Co. Can47,529$0.37M0.0%N/A0.106%
2/11/2020South Dakota Investment Council189,489$1.49M0.0%-1.6%0.423%
2/11/2020Quantitative Systematic Strategies LLC15,600$0.12M0.0%N/A0.035%
2/11/2020Prudential Financial Inc.63,710$0.50M0.0%+3.8%0.142%
2/11/2020KBC Group NV14,070$0.11M0.0%-54.6%0.031%
2/10/2020Barclays PLC97,290$0.76M0.0%+36.8%0.217%
2/10/2020Bank of Montreal Can9,369$74K0.0%+139.7%0.021%
2/7/2020Hunter Associates Investment Management LLC36,285$0.29M0.1%+78.9%0.081%
2/7/2020Charles Schwab Investment Management Inc.245,450$1.93M0.0%+2.8%0.548%
(Data available from 1/1/2016 forward)
This page was last updated on 9/19/2020 by MarketBeat.com Staff

Enter your email address below to receive a concise daily summary of analysts' upgrades, downgrades and new coverage with MarketBeat.com's FREE daily email newsletter.